createdAt,value
2022-09-26T00:00:55.506Z,11.23
2022-09-26T00:03:22.820Z,10.50
2022-09-26T00:05:49.703Z,7.17
2022-09-26T00:08:16.838Z,11.43
2022-09-26T00:10:43.616Z,8.37
2022-09-26T00:13:10.730Z,9.73
2022-09-26T00:15:38.852Z,14.30
2022-09-26T00:18:05.778Z,9.53
2022-09-26T00:20:32.506Z,12.03
2022-09-26T00:22:59.441Z,12.70
2022-09-26T00:25:27.373Z,11.83
2022-09-26T00:27:54.154Z,11.47
2022-09-26T00:30:20.975Z,12.77
2022-09-26T00:32:49.095Z,14.37
2022-09-26T00:35:16.301Z,9.00
2022-09-26T00:37:43.356Z,13.03
2022-09-26T00:40:11.275Z,11.13
2022-09-26T00:42:38.156Z,9.03
2022-09-26T00:45:06.391Z,9.07
2022-09-26T00:47:39.700Z,9.73
2022-09-26T00:50:15.247Z,10.63
2022-09-26T00:52:47.111Z,12.03
2022-09-26T00:55:19.145Z,14.33
2022-09-26T00:57:53.615Z,10.00
2022-09-26T01:00:20.799Z,9.03
2022-09-26T01:02:48.435Z,13.03
2022-09-26T01:05:20.319Z,8.20
2022-09-26T01:07:47.559Z,9.67
2022-09-26T01:10:15.793Z,9.33
2022-09-26T01:12:44.248Z,7.17
2022-09-26T01:15:11.749Z,10.60
2022-09-26T01:17:41.411Z,9.20
2022-09-26T01:20:21.524Z,10.50
2022-09-26T01:23:35.237Z,9.57
2022-09-26T01:26:27.993Z,10.40
2022-09-26T01:29:23.464Z,9.17
2022-09-26T01:32:20.890Z,7.00
2022-09-26T01:34:57.616Z,9.07
2022-09-26T01:37:35.036Z,12.77
2022-09-26T01:40:08.988Z,10.73
2022-09-26T01:42:45.469Z,10.30
2022-09-26T01:45:17.491Z,10.77
2022-09-26T01:47:51.597Z,8.00
2022-09-26T01:54:11.307Z,8.13
2022-09-26T01:56:40.200Z,11.00
2022-09-26T01:59:10.178Z,7.73
2022-09-26T02:01:41.028Z,7.80
2022-09-26T02:04:12.643Z,9.13
2022-09-26T02:06:44.953Z,5.33
2022-09-26T02:09:16.805Z,9.33
2022-09-26T02:11:48.743Z,9.37
2022-09-26T02:14:20.449Z,8.70
2022-09-26T02:16:50.358Z,6.90
2022-09-26T02:19:22.895Z,7.67
2022-09-26T02:21:50.439Z,5.37
2022-09-26T02:24:17.643Z,9.30
2022-09-26T02:26:44.643Z,5.30
2022-09-26T02:29:14.236Z,6.87
2022-09-26T02:31:48.569Z,9.33
2022-09-26T02:34:16.041Z,7.93
2022-09-26T02:36:44.388Z,11.90
2022-09-26T02:39:11.841Z,6.80
2022-09-26T02:41:47.860Z,14.10
2022-09-26T02:44:38.704Z,6.87
2022-09-26T02:47:20.938Z,6.83
2022-09-26T02:50:08.519Z,6.90
2022-09-26T02:52:49.277Z,7.00
2022-09-26T02:55:22.171Z,5.30
2022-09-26T02:58:02.057Z,9.57
2022-09-26T03:00:39.440Z,9.93
2022-09-26T03:03:12.953Z,5.97
2022-09-26T03:05:42.894Z,7.03
2022-09-26T03:08:16.636Z,8.50
2022-09-26T03:10:45.443Z,5.03
2022-09-26T03:13:15.266Z,7.20
2022-09-26T03:15:45.575Z,6.00
2022-09-26T03:18:16.657Z,8.07
2022-09-26T03:20:44.595Z,4.03
2022-09-26T03:23:13.212Z,5.50
2022-09-26T03:25:40.872Z,6.80
2022-09-26T03:28:07.661Z,7.50
2022-09-26T03:30:34.869Z,6.57
2022-09-26T03:33:03.257Z,7.87
2022-09-26T03:35:30.555Z,4.67
2022-09-26T03:37:57.343Z,10.40
2022-09-26T03:40:26.883Z,3.63
2022-09-26T03:42:53.820Z,11.17
2022-09-26T03:45:21.497Z,11.47
2022-09-26T03:47:48.302Z,8.87
2022-09-26T03:50:15.512Z,5.57
2022-09-26T03:52:42.363Z,6.67
2022-09-26T03:55:09.669Z,6.07
2022-09-26T03:57:37.883Z,8.37
2022-09-26T04:00:08.021Z,5.17
2022-09-26T04:02:35.026Z,4.27
2022-09-26T04:05:02.217Z,6.30
2022-09-26T04:07:29.079Z,5.37
2022-09-26T04:09:56.292Z,6.03
2022-09-26T04:12:23.140Z,10.30
2022-09-26T04:14:53.257Z,6.07
2022-09-26T04:17:20.010Z,4.87
2022-09-26T04:19:47.152Z,4.67
2022-09-26T04:22:14.006Z,3.13
2022-09-26T04:24:41.927Z,5.63
2022-09-26T04:27:08.762Z,6.10
2022-09-26T04:29:36.117Z,4.17
2022-09-26T04:32:04.417Z,9.70
2022-09-26T04:34:31.744Z,3.50
2022-09-26T04:37:00.292Z,5.23
2022-09-26T04:39:27.570Z,6.07
2022-09-26T04:41:54.527Z,3.60
2022-09-26T04:44:21.377Z,6.97
2022-09-26T04:46:48.256Z,6.00
2022-09-26T04:49:16.821Z,8.00
2022-09-26T04:51:44.348Z,7.67
2022-09-26T04:54:11.681Z,4.50
2022-09-26T04:56:38.565Z,6.13
2022-09-26T04:59:05.504Z,5.90
2022-09-26T05:01:32.839Z,4.77
2022-09-26T05:03:59.700Z,6.93
2022-09-26T05:06:28.315Z,9.83
2022-09-26T05:08:55.232Z,7.70
2022-09-26T05:11:22.417Z,10.73
2022-09-26T05:13:53.531Z,6.97
2022-09-26T05:16:21.901Z,5.60
2022-09-26T05:18:50.369Z,7.47
2022-09-26T05:21:17.670Z,9.23
2022-09-26T05:24:04.845Z,5.90
2022-09-26T05:26:39.647Z,9.27
2022-09-26T05:29:08.786Z,13.03
2022-09-26T05:31:38.264Z,6.57
2022-09-26T05:34:06.116Z,9.07
2022-09-26T05:36:34.243Z,6.50
2022-09-26T05:39:02.807Z,10.03
2022-09-26T05:41:31.967Z,6.70
2022-09-26T05:43:59.800Z,7.27
2022-09-26T05:46:28.276Z,7.03
2022-09-26T05:48:56.110Z,5.87
2022-09-26T05:51:23.332Z,10.67
2022-09-26T05:53:50.393Z,5.47
2022-09-26T05:56:19.922Z,7.10
2022-09-26T05:58:47.295Z,11.40
2022-09-26T06:01:16.431Z,9.37
2022-09-26T06:03:44.459Z,7.07
2022-09-26T06:06:14.120Z,7.57
2022-09-26T06:08:42.087Z,4.47
2022-09-26T06:11:10.634Z,5.47
2022-09-26T06:13:40.396Z,8.97
2022-09-26T06:16:10.389Z,12.37
2022-09-26T06:18:38.339Z,8.47
2022-09-26T06:21:07.361Z,7.03
2022-09-26T06:23:34.470Z,9.07
2022-09-26T06:26:02.200Z,8.57
2022-09-26T06:28:29.782Z,13.30
2022-09-26T06:30:57.968Z,9.83
2022-09-26T06:33:26.837Z,12.80
2022-09-26T06:36:00.631Z,9.23
2022-09-26T06:38:28.416Z,16.60
2022-09-26T06:40:55.835Z,13.40
2022-09-26T06:43:22.822Z,11.43
2022-09-26T06:45:50.144Z,9.20
2022-09-26T06:48:23.705Z,20.60
2022-09-26T06:50:52.870Z,12.87
2022-09-26T06:53:22.119Z,16.07
2022-09-26T06:55:49.105Z,12.60
2022-09-26T06:58:15.995Z,13.40
2022-09-26T07:00:43.460Z,14.83
2022-09-26T07:03:11.918Z,12.90
2022-09-26T07:05:40.202Z,9.80
2022-09-26T07:08:07.049Z,9.77
2022-09-26T07:10:37.598Z,13.27
2022-09-26T07:13:06.258Z,14.97
2022-09-26T07:15:34.524Z,10.37
2022-09-26T07:18:02.998Z,11.63
2022-09-26T07:20:32.640Z,18.73
2022-09-26T07:23:02.485Z,11.53
2022-09-26T07:25:32.229Z,10.70
2022-09-26T07:27:59.965Z,12.90
2022-09-26T07:30:28.120Z,11.93
2022-09-26T07:33:00.461Z,10.33
2022-09-26T07:35:28.347Z,14.97
2022-09-26T07:37:55.294Z,15.00
2022-09-26T07:40:23.637Z,10.73
2022-09-26T07:43:15.230Z,10.13
2022-09-26T07:45:57.850Z,12.33
2022-09-26T07:48:43.226Z,12.43
2022-09-26T07:51:12.389Z,7.83
2022-09-26T07:53:41.334Z,14.43
2022-09-26T07:56:12.940Z,12.70
2022-09-26T07:58:44.596Z,13.17
2022-09-26T08:01:13.284Z,16.80
2022-09-26T08:03:40.528Z,14.27
2022-09-26T08:06:08.074Z,7.10
2022-09-26T08:08:35.860Z,14.70
2022-09-26T08:11:04.441Z,9.47
2022-09-26T08:13:33.189Z,9.60
2022-09-26T08:16:04.662Z,10.30
2022-09-26T08:18:33.289Z,6.37
2022-09-26T08:21:02.453Z,14.03
2022-09-26T08:23:29.398Z,8.53
2022-09-26T08:25:56.548Z,7.70
2022-09-26T08:28:24.013Z,6.03
2022-09-26T08:30:52.504Z,9.83
2022-09-26T08:33:21.124Z,11.60
2022-09-26T08:35:48.880Z,6.57
2022-09-26T08:38:15.771Z,8.07
2022-09-26T08:40:54.635Z,12.33
2022-09-26T08:43:39.909Z,7.77
2022-09-26T08:46:33.638Z,3.83
2022-09-26T08:49:23.501Z,8.30
2022-09-26T08:51:53.238Z,4.83
2022-09-26T08:54:30.770Z,8.20
2022-09-26T08:57:01.680Z,8.03
2022-09-26T08:59:33.917Z,6.20
2022-09-26T09:02:09.691Z,7.07
2022-09-26T09:04:44.288Z,6.37
2022-09-26T09:07:20.005Z,5.03
2022-09-26T09:09:46.961Z,8.10
2022-09-26T09:12:24.328Z,8.20
2022-09-26T09:15:24.726Z,10.40
2022-09-26T09:18:09.939Z,4.33
2022-09-26T09:20:47.826Z,6.17
2022-09-26T09:23:28.224Z,9.13
2022-09-26T09:29:18.988Z,4.77
2022-09-26T09:31:47.497Z,8.73
2022-09-26T09:34:28.244Z,7.57
2022-09-26T09:36:58.984Z,7.43
2022-09-26T09:39:30.762Z,6.93
2022-09-26T09:42:04.950Z,3.83
2022-09-26T09:44:45.770Z,5.87
2022-09-26T09:47:15.760Z,5.97
2022-09-26T09:49:46.568Z,4.93
2022-09-26T09:52:31.568Z,6.83
2022-09-26T09:55:06.946Z,2.93
2022-09-26T09:57:45.579Z,4.83
2022-09-26T10:00:16.632Z,5.00
2022-09-26T10:02:53.048Z,4.23
2022-09-26T10:05:36.056Z,8.43
2022-09-26T10:08:05.846Z,3.77
2022-09-26T10:10:39.764Z,9.73
2022-09-26T10:13:11.090Z,8.13
2022-09-26T10:15:43.432Z,10.03
2022-09-26T10:18:26.729Z,7.13
2022-09-26T10:20:57.958Z,4.37
2022-09-26T10:23:30.188Z,4.07
2022-09-26T10:26:02.622Z,4.73
2022-09-26T10:28:33.863Z,5.97
2022-09-26T10:31:04.597Z,3.83
2022-09-26T10:33:35.007Z,5.20
2022-09-26T10:36:10.409Z,4.53
2022-09-26T10:39:10.876Z,2.27
2022-09-26T10:41:42.763Z,4.07
2022-09-26T10:44:24.762Z,5.63
2022-09-26T10:46:57.323Z,3.40
2022-09-26T10:49:31.723Z,4.93
2022-09-26T10:52:08.521Z,3.53
2022-09-26T10:54:41.815Z,8.13
2022-09-26T10:57:20.043Z,4.37
2022-09-26T10:59:48.344Z,3.87
2022-09-26T11:02:21.866Z,7.13
2022-09-26T11:05:10.466Z,2.97
2022-09-26T11:07:42.763Z,3.63
2022-09-26T11:10:13.779Z,4.10
2022-09-26T11:12:57.102Z,2.57
2022-09-26T11:15:24.009Z,4.27
2022-09-26T11:17:52.742Z,3.57
2022-09-26T11:20:35.157Z,5.37
2022-09-26T11:23:30.635Z,7.47
2022-09-26T11:26:10.569Z,6.57
2022-09-26T11:28:42.162Z,3.70
2022-09-26T11:31:22.772Z,8.17
2022-09-26T11:33:49.998Z,4.27
2022-09-26T11:36:41.632Z,4.10
2022-09-26T11:39:25.894Z,5.33
2022-09-26T11:42:06.218Z,3.47
2022-09-26T11:44:54.144Z,4.37
2022-09-26T11:47:58.693Z,5.17
2022-09-26T11:50:40.170Z,3.73
2022-09-26T11:53:31.477Z,6.70
2022-09-26T11:56:15.884Z,10.43
2022-09-26T11:58:50.362Z,5.43
2022-09-26T12:01:27.172Z,5.40
2022-09-26T12:04:19.307Z,6.37
2022-09-26T12:06:55.056Z,9.77
2022-09-26T12:09:50.552Z,5.03
2022-09-26T12:12:27.734Z,4.93
2022-09-26T12:15:05.737Z,3.93
2022-09-26T12:17:48.108Z,6.87
2022-09-26T12:20:30.191Z,6.40
2022-09-26T12:23:06.413Z,3.87
2022-09-26T12:25:42.190Z,6.73
2022-09-26T12:28:31.018Z,2.93
2022-09-26T12:31:09.568Z,4.53
2022-09-26T12:33:59.229Z,4.77
2022-09-26T12:36:40.434Z,6.73
2022-09-26T12:39:22.135Z,5.43
2022-09-26T12:42:06.670Z,5.43
2022-09-26T12:45:03.405Z,9.30
2022-09-26T12:47:57.418Z,6.50
2022-09-26T12:50:35.838Z,3.43
2022-09-26T12:53:27.734Z,7.43
2022-09-26T12:56:01.668Z,2.90
2022-09-26T12:58:48.804Z,6.23
2022-09-26T13:01:32.906Z,5.20
2022-09-26T13:04:27.433Z,5.23
2022-09-26T13:07:34.031Z,11.63
2022-09-26T13:10:22.267Z,4.07
2022-09-26T13:13:06.373Z,2.33
2022-09-26T13:15:39.956Z,3.63
2022-09-26T13:18:15.684Z,2.73
2022-09-26T13:20:44.784Z,7.37
2022-09-26T13:23:18.884Z,3.00
2022-09-26T13:25:50.076Z,7.77
2022-09-26T13:28:22.006Z,3.80
2022-09-26T13:30:53.524Z,3.87
2022-09-26T13:33:26.598Z,6.37
2022-09-26T13:35:56.284Z,3.90
2022-09-26T13:38:45.039Z,8.33
2022-09-26T13:41:32.634Z,5.13
2022-09-26T13:44:09.598Z,6.70
2022-09-26T13:46:47.805Z,6.53
2022-09-26T13:49:42.858Z,3.23
2022-09-26T13:52:25.853Z,3.60
2022-09-26T13:54:57.606Z,5.70
2022-09-26T13:57:32.547Z,7.70
2022-09-26T13:59:59.892Z,3.60
2022-09-26T14:02:31.907Z,6.63
2022-09-26T14:05:46.364Z,3.17
2022-09-26T14:08:49.152Z,3.07
2022-09-26T14:11:33.727Z,5.43
2022-09-26T14:14:37.452Z,4.60
2022-09-26T14:17:22.599Z,4.37
2022-09-26T14:19:57.560Z,3.97
2022-09-26T14:22:37.445Z,5.63
2022-09-26T14:25:43.027Z,5.23
2022-09-26T14:28:19.759Z,8.17
2022-09-26T14:31:31.484Z,6.40
2022-09-26T14:34:35.931Z,5.03
2022-09-26T14:37:17.353Z,8.07
2022-09-26T14:39:46.622Z,5.17
2022-09-26T14:42:22.815Z,9.23
2022-09-26T14:44:57.658Z,4.00
2022-09-26T14:47:26.845Z,7.00
2022-09-26T14:50:01.669Z,5.43
2022-09-26T14:52:29.795Z,6.73
2022-09-26T14:55:01.264Z,3.10
2022-09-26T14:57:32.036Z,3.50
2022-09-26T14:59:59.821Z,7.97
2022-09-26T15:02:39.407Z,6.10
2022-09-26T15:05:23.341Z,5.70
2022-09-26T15:07:53.003Z,5.60
2022-09-26T15:10:25.338Z,4.90
2022-09-26T15:13:01.668Z,5.03
2022-09-26T15:15:36.449Z,4.77
2022-09-26T15:18:08.519Z,2.97
2022-09-26T15:20:40.151Z,3.43
2022-09-26T15:23:19.346Z,4.10
2022-09-26T15:25:47.615Z,7.43
2022-09-26T15:28:14.751Z,5.77
2022-09-26T15:30:42.691Z,3.87
2022-09-26T15:33:17.388Z,3.93
2022-09-26T15:35:53.645Z,5.00
2022-09-26T15:38:23.627Z,6.67
2022-09-26T15:41:01.698Z,3.53
2022-09-26T15:43:34.276Z,5.70
2022-09-26T15:46:07.307Z,4.03
2022-09-26T15:48:43.200Z,5.77
2022-09-26T15:51:19.629Z,4.93
2022-09-26T15:53:48.955Z,3.37
2022-09-26T15:56:21.979Z,15.43
2022-09-26T15:58:52.712Z,6.87
2022-09-26T16:01:21.764Z,5.77
2022-09-26T16:03:57.509Z,5.87
2022-09-26T16:06:28.689Z,3.33
2022-09-26T16:08:59.795Z,4.40
2022-09-26T16:11:28.603Z,5.47
2022-09-26T16:13:57.054Z,2.20
2022-09-26T16:16:31.822Z,2.90
2022-09-26T16:19:01.570Z,2.80
2022-09-26T16:21:33.615Z,3.70
2022-09-26T16:24:22.222Z,3.03
2022-09-26T16:26:51.439Z,8.10
2022-09-26T16:29:30.196Z,4.67
2022-09-26T16:31:57.025Z,1.57
2022-09-26T16:34:28.395Z,1.60
2022-09-26T16:36:55.529Z,3.17
2022-09-26T16:39:24.918Z,1.83
2022-09-26T16:42:03.423Z,2.23
2022-09-26T16:44:35.283Z,2.00
2022-09-26T16:47:06.109Z,1.93
2022-09-26T16:49:45.925Z,3.50
2022-09-26T16:52:26.529Z,3.80
2022-09-26T16:54:54.009Z,2.43
2022-09-26T16:57:24.642Z,5.63
2022-09-26T16:59:53.252Z,4.53
2022-09-26T17:02:26.065Z,3.10
2022-09-26T17:04:54.122Z,5.93
2022-09-26T17:07:21.000Z,3.63
2022-09-26T17:09:48.131Z,5.80
2022-09-26T17:12:18.141Z,2.00
2022-09-26T17:14:52.000Z,5.60
2022-09-26T17:17:21.860Z,2.53
2022-09-26T17:19:56.758Z,2.57
2022-09-26T17:22:26.865Z,2.57
2022-09-26T17:24:54.409Z,5.90
2022-09-26T17:27:25.626Z,2.80
2022-09-26T17:29:58.638Z,2.03
2022-09-26T17:32:28.460Z,1.97
2022-09-26T17:34:58.344Z,1.73
2022-09-26T17:37:26.177Z,2.83
2022-09-26T17:39:54.059Z,3.50
2022-09-26T17:42:24.118Z,3.13
2022-09-26T17:44:51.773Z,4.17
2022-09-26T17:47:20.095Z,4.37
2022-09-26T17:49:51.386Z,2.27
2022-09-26T17:52:24.852Z,2.63
2022-09-26T17:54:56.166Z,2.20
2022-09-26T17:57:25.410Z,2.07
2022-09-26T17:59:54.309Z,3.50
2022-09-26T18:02:29.997Z,3.70
2022-09-26T18:04:59.502Z,7.67
2022-09-26T18:07:36.636Z,1.70
2022-09-26T18:10:06.560Z,2.03
2022-09-26T18:12:34.808Z,3.60
2022-09-26T18:15:03.561Z,2.13
2022-09-26T18:17:32.066Z,2.63
2022-09-26T18:19:59.216Z,2.30
2022-09-26T18:22:32.319Z,1.53
2022-09-26T18:25:04.528Z,4.00
2022-09-26T18:27:31.746Z,1.73
2022-09-26T18:29:59.320Z,1.60
2022-09-26T18:32:31.691Z,2.07
2022-09-26T18:35:00.663Z,1.63
2022-09-26T18:37:27.386Z,1.57
2022-09-26T18:39:55.822Z,3.10
2022-09-26T18:42:24.431Z,2.40
2022-09-26T18:45:00.057Z,1.87
2022-09-26T18:47:26.922Z,1.50
2022-09-26T18:49:54.211Z,2.60
2022-09-26T18:52:22.458Z,3.47
2022-09-26T18:55:09.207Z,2.13
2022-09-26T18:57:54.408Z,2.00
2022-09-26T19:00:21.493Z,3.50
2022-09-26T19:02:50.290Z,4.43
2022-09-26T19:05:18.027Z,4.70
2022-09-26T19:07:46.368Z,1.70
2022-09-26T19:10:16.426Z,4.30
2022-09-26T19:12:43.367Z,1.80
2022-09-26T19:15:14.080Z,4.40
2022-09-26T19:17:40.947Z,4.67
2022-09-26T19:20:07.878Z,1.40
2022-09-26T19:22:34.826Z,3.70
2022-09-26T19:25:03.108Z,1.87
2022-09-26T19:27:32.053Z,2.27
2022-09-26T19:30:02.279Z,3.93
2022-09-26T19:32:32.266Z,3.17
2022-09-26T19:35:02.666Z,7.20
2022-09-26T19:37:29.579Z,2.97
2022-09-26T19:39:58.061Z,4.67
2022-09-26T19:42:26.842Z,1.33
2022-09-26T19:44:53.654Z,2.57
2022-09-26T19:47:22.571Z,5.53
2022-09-26T19:49:51.896Z,2.40
2022-09-26T19:52:20.488Z,1.73
2022-09-26T19:54:47.654Z,1.57
2022-09-26T19:57:15.736Z,1.47
2022-09-26T19:59:44.044Z,2.90
2022-09-26T20:02:14.607Z,2.20
2022-09-26T20:04:42.043Z,2.83
2022-09-26T20:07:11.352Z,1.80
2022-09-26T20:09:39.491Z,4.47
2022-09-26T20:12:06.643Z,1.77
2022-09-26T20:14:33.908Z,2.50
2022-09-26T20:17:06.074Z,2.97
2022-09-26T20:19:35.717Z,2.53
2022-09-26T20:22:05.241Z,3.17
2022-09-26T20:24:37.728Z,3.87
2022-09-26T20:27:07.447Z,4.57
2022-09-26T20:29:55.264Z,2.47
2022-09-26T20:32:23.748Z,2.00
2022-09-26T20:34:50.566Z,4.53
2022-09-26T20:37:17.942Z,3.03
2022-09-26T20:39:44.817Z,2.10
2022-09-26T20:42:17.446Z,1.97
2022-09-26T20:44:46.977Z,2.43
2022-09-26T20:47:18.193Z,2.07
2022-09-26T20:49:50.717Z,3.47
2022-09-26T20:52:21.750Z,4.03
2022-09-26T20:54:49.347Z,2.13
2022-09-26T20:57:17.174Z,3.63
2022-09-26T20:59:44.312Z,2.73
2022-09-26T21:02:25.358Z,3.53
2022-09-26T21:04:54.774Z,3.23
2022-09-26T21:07:22.413Z,9.70
2022-09-26T21:09:50.585Z,4.60
2022-09-26T21:12:18.153Z,1.53
2022-09-26T21:14:45.356Z,1.87
2022-09-26T21:17:17.925Z,2.17
2022-09-26T21:19:45.896Z,1.77
2022-09-26T21:22:14.240Z,1.67
2022-09-26T21:24:43.378Z,1.43
2022-09-26T21:27:11.205Z,3.33
2022-09-26T21:29:38.552Z,1.47
2022-09-26T21:32:07.398Z,1.90
2022-09-26T21:34:35.388Z,1.80
2022-09-26T21:37:03.711Z,2.70
2022-09-26T21:39:31.953Z,2.97
2022-09-26T21:42:03.929Z,2.50
2022-09-26T21:44:37.265Z,2.33
2022-09-26T21:47:04.124Z,2.67
2022-09-26T21:49:30.962Z,2.20
2022-09-26T21:52:02.945Z,1.83
2022-09-26T21:54:35.030Z,2.37
2022-09-26T21:57:05.341Z,1.80
2022-09-26T21:59:32.630Z,2.20
2022-09-26T22:01:59.636Z,1.90
2022-09-26T22:04:26.730Z,1.53
2022-09-26T22:06:53.466Z,1.40
2022-09-26T22:09:20.267Z,3.60
2022-09-26T22:11:48.630Z,1.90
2022-09-26T22:14:15.739Z,3.20
2022-09-26T22:16:42.837Z,1.53
2022-09-26T22:19:09.916Z,3.30
2022-09-26T22:21:37.127Z,2.03
2022-09-26T22:24:04.451Z,2.00
2022-09-26T22:26:31.265Z,1.93
2022-09-26T22:28:59.774Z,4.73
2022-09-26T22:31:26.612Z,4.27
2022-09-26T22:33:56.879Z,1.37
2022-09-26T22:36:24.345Z,2.67
2022-09-26T22:38:51.570Z,1.13
2022-09-26T22:41:18.619Z,5.13
2022-09-26T22:43:45.828Z,1.23
2022-09-26T22:46:14.609Z,1.70
2022-09-26T22:48:43.759Z,3.67
2022-09-26T22:51:10.764Z,2.17
2022-09-26T22:53:39.542Z,1.63
2022-09-26T22:56:08.046Z,3.40
2022-09-26T22:58:38.769Z,2.17
2022-09-26T23:01:07.692Z,1.67
2022-09-26T23:03:36.447Z,1.60
2022-09-26T23:06:04.282Z,3.80
2022-09-26T23:08:32.589Z,1.97
2022-09-26T23:11:00.670Z,1.50
2022-09-26T23:13:28.974Z,1.67
2022-09-26T23:15:56.031Z,1.50
2022-09-26T23:18:23.319Z,1.50
2022-09-26T23:20:52.035Z,3.03
2022-09-26T23:23:19.203Z,1.83
2022-09-26T23:25:48.344Z,2.33
2022-09-26T23:28:16.088Z,3.37
2022-09-26T23:30:43.753Z,1.40
2022-09-26T23:33:10.841Z,2.13
2022-09-26T23:35:39.136Z,3.13
2022-09-26T23:38:07.555Z,2.10
2022-09-26T23:40:36.887Z,3.83
2022-09-26T23:43:03.824Z,1.80
2022-09-26T23:45:31.299Z,1.23
2022-09-26T23:47:58.066Z,1.90
2022-09-26T23:50:24.955Z,3.03
2022-09-26T23:52:51.794Z,1.40
2022-09-26T23:55:20.369Z,2.47
2022-09-26T23:57:47.167Z,2.33
